createdAt,value
2019-03-28T00:01:38.851Z,8.50
2019-03-28T00:04:09.089Z,8.50
2019-03-28T00:06:39.627Z,8.50
2019-03-28T00:09:10.081Z,8.50
2019-03-28T00:11:40.599Z,8.40
2019-03-28T00:14:10.823Z,8.40
2019-03-28T00:16:41.099Z,8.40
2019-03-28T00:19:11.254Z,8.40
2019-03-28T00:21:41.429Z,8.40
2019-03-28T00:24:29.841Z,8.40
2019-03-28T00:27:00.101Z,8.40
2019-03-28T00:29:30.299Z,8.40
2019-03-28T00:32:00.651Z,8.40
2019-03-28T00:34:31.086Z,8.40
2019-03-28T00:37:01.988Z,8.40
2019-03-28T00:39:32.658Z,8.50
2019-03-28T00:42:03.363Z,8.40
2019-03-28T00:44:33.847Z,8.40
2019-03-28T00:47:04.074Z,8.40
2019-03-28T00:49:34.247Z,8.40
2019-03-28T00:52:05.514Z,8.30
2019-03-28T00:54:35.674Z,8.40
2019-03-28T00:57:05.924Z,8.40
2019-03-28T00:59:36.427Z,8.40
2019-03-28T01:02:06.594Z,8.30
2019-03-28T01:04:37.119Z,8.30
2019-03-28T01:07:07.380Z,8.40
2019-03-28T01:09:37.686Z,8.40
2019-03-28T01:12:08.300Z,8.40
2019-03-28T01:14:39.054Z,8.40
2019-03-28T01:17:10.512Z,8.40
2019-03-28T01:19:40.666Z,8.40
2019-03-28T01:22:10.859Z,8.40
2019-03-28T01:24:41.092Z,8.40
2019-03-28T01:27:11.258Z,8.30
2019-03-28T01:29:41.427Z,8.30
2019-03-28T01:32:11.589Z,8.40
2019-03-28T01:34:42.007Z,8.40
2019-03-28T01:37:12.256Z,8.30
2019-03-28T01:39:43.638Z,8.30
2019-03-28T01:42:13.818Z,8.40
2019-03-28T01:44:44.329Z,8.40
2019-03-28T01:47:14.570Z,8.40
2019-03-28T01:49:44.820Z,8.40
2019-03-28T01:52:15.923Z,8.40
2019-03-28T01:54:46.340Z,8.40
2019-03-28T01:57:16.507Z,8.40
2019-03-28T01:59:46.704Z,8.40
2019-03-28T02:02:17.115Z,8.40
2019-03-28T02:04:47.565Z,8.40
2019-03-28T02:07:17.798Z,8.40
2019-03-28T02:09:47.966Z,8.30
2019-03-28T02:12:18.144Z,8.30
2019-03-28T02:14:48.439Z,8.30
2019-03-28T02:17:18.846Z,8.30
2019-03-28T02:19:49.522Z,8.30
2019-03-28T02:22:19.698Z,8.20
2019-03-28T02:24:50.127Z,8.20
2019-03-28T02:27:24.380Z,8.30
2019-03-28T02:29:52.184Z,8.30
2019-03-28T02:32:22.579Z,8.30
2019-03-28T02:34:52.827Z,8.20
2019-03-28T02:37:23.433Z,8.20
2019-03-28T02:39:53.971Z,8.20
2019-03-28T02:42:24.390Z,8.30
2019-03-28T02:44:54.583Z,8.20
2019-03-28T02:47:25.009Z,8.20
2019-03-28T02:49:55.578Z,8.10
2019-03-28T02:52:25.754Z,8.10
2019-03-28T02:54:56.012Z,8.20
2019-03-28T02:57:40.213Z,8.20
2019-03-28T02:59:58.375Z,8.20
2019-03-28T03:02:28.611Z,8.20
2019-03-28T03:04:58.791Z,8.20
2019-03-28T03:07:30.128Z,8.20
2019-03-28T03:10:00.550Z,8.30
2019-03-28T03:12:31.047Z,8.30
2019-03-28T03:15:01.253Z,8.20
2019-03-28T03:17:31.476Z,8.20
2019-03-28T03:20:01.686Z,8.20
2019-03-28T03:22:32.064Z,8.20
2019-03-28T03:25:02.308Z,8.20
2019-03-28T03:27:32.476Z,8.20
2019-03-28T03:30:03.696Z,8.20
2019-03-28T03:32:34.089Z,8.30
2019-03-28T03:35:04.926Z,8.30
2019-03-28T03:37:35.150Z,8.30
2019-03-28T03:40:06.690Z,8.30
2019-03-28T03:42:36.970Z,8.30
2019-03-28T03:45:09.328Z,8.30
2019-03-28T03:47:39.945Z,8.30
2019-03-28T03:50:11.977Z,8.30
2019-03-28T03:52:42.157Z,8.20
2019-03-28T03:55:12.318Z,8.20
2019-03-28T03:57:42.513Z,8.30
2019-03-28T04:00:15.403Z,8.30
2019-03-28T04:02:45.570Z,8.30
2019-03-28T04:05:16.383Z,8.30
2019-03-28T04:07:46.800Z,8.30
2019-03-28T04:10:17.442Z,8.30
2019-03-28T04:12:47.888Z,8.30
2019-03-28T04:15:18.094Z,8.40
2019-03-28T04:17:48.333Z,8.40
2019-03-28T04:20:18.743Z,8.40
2019-03-28T04:22:48.940Z,8.30
2019-03-28T04:25:19.119Z,8.20
2019-03-28T04:27:49.295Z,8.20
2019-03-28T04:30:19.536Z,8.20
2019-03-28T04:32:49.720Z,8.30
2019-03-28T04:35:19.891Z,8.30
2019-03-28T04:37:50.071Z,8.40
2019-03-28T04:40:20.245Z,8.30
2019-03-28T04:42:50.477Z,8.30
2019-03-28T04:45:20.795Z,8.30
2019-03-28T04:47:51.028Z,8.30
2019-03-28T04:50:21.314Z,8.30
2019-03-28T04:52:52.989Z,8.30
2019-03-28T04:55:23.648Z,8.30
2019-03-28T04:57:53.822Z,8.30
2019-03-28T05:00:24.141Z,8.30
2019-03-28T05:02:54.611Z,8.30
2019-03-28T05:05:24.864Z,8.30
2019-03-28T05:07:55.031Z,8.20
2019-03-28T05:10:26.448Z,8.30
2019-03-28T05:12:57.367Z,8.20
2019-03-28T05:15:28.483Z,8.20
2019-03-28T05:17:58.655Z,8.30
2019-03-28T05:20:28.818Z,8.20
2019-03-28T05:22:59.254Z,8.20
2019-03-28T05:25:29.409Z,8.30
2019-03-28T05:27:59.580Z,8.30
2019-03-28T05:30:29.745Z,8.30
2019-03-28T05:32:59.942Z,8.30
2019-03-28T05:35:30.192Z,8.30
2019-03-28T05:38:00.371Z,8.30
2019-03-28T05:40:30.539Z,8.40
2019-03-28T05:43:00.714Z,8.50
2019-03-28T05:45:30.878Z,8.50
2019-03-28T05:48:01.131Z,8.50
2019-03-28T05:50:31.291Z,8.50
2019-03-28T05:53:01.742Z,8.50
2019-03-28T05:55:31.913Z,8.60
2019-03-28T05:58:02.175Z,8.60
2019-03-28T06:00:32.623Z,8.60
2019-03-28T06:03:03.766Z,8.60
2019-03-28T06:05:34.059Z,8.50
2019-03-28T06:08:04.324Z,8.50
2019-03-28T06:10:34.563Z,8.50
2019-03-28T06:13:05.030Z,8.50
2019-03-28T06:15:35.458Z,8.40
2019-03-28T06:18:05.710Z,8.50
2019-03-28T06:20:35.886Z,8.50
2019-03-28T06:23:06.056Z,8.50
2019-03-28T06:25:39.432Z,8.60
2019-03-28T06:28:08.428Z,8.50
2019-03-28T06:30:38.934Z,8.40
2019-03-28T06:33:09.098Z,8.50
2019-03-28T06:35:39.354Z,8.50
2019-03-28T06:38:09.859Z,8.60
2019-03-28T06:40:40.037Z,8.60
2019-03-28T06:43:10.261Z,8.60
2019-03-28T06:45:40.431Z,8.60
2019-03-28T06:48:10.627Z,8.60
2019-03-28T06:50:40.858Z,8.60
2019-03-28T06:53:11.018Z,8.60
2019-03-28T06:55:41.527Z,8.60
2019-03-28T06:58:11.711Z,8.70
2019-03-28T07:00:41.882Z,8.70
2019-03-28T07:03:12.915Z,8.80
2019-03-28T07:05:43.255Z,8.70
2019-03-28T07:08:13.733Z,8.70
2019-03-28T07:10:44.171Z,8.80
2019-03-28T07:13:15.765Z,8.80
2019-03-28T07:15:45.935Z,8.80
2019-03-28T07:18:16.094Z,8.80
2019-03-28T07:20:46.410Z,8.90
2019-03-28T07:23:16.612Z,8.90
2019-03-28T07:25:46.958Z,8.90
2019-03-28T07:28:17.479Z,8.90
2019-03-28T07:30:47.949Z,8.90
2019-03-28T07:33:18.114Z,8.80
2019-03-28T07:35:48.284Z,8.70
2019-03-28T07:38:18.459Z,8.80
2019-03-28T07:40:48.698Z,8.90
2019-03-28T07:43:18.940Z,8.90
2019-03-28T07:45:49.467Z,8.90
2019-03-28T07:48:20.408Z,8.90
2019-03-28T07:50:50.653Z,8.90
2019-03-28T07:53:21.554Z,9.00
2019-03-28T07:55:52.221Z,8.80
2019-03-28T07:58:22.722Z,8.80
2019-03-28T08:00:52.951Z,8.90
2019-03-28T08:03:23.207Z,9.00
2019-03-28T08:05:53.411Z,9.10
2019-03-28T08:08:38.025Z,9.00
2019-03-28T08:10:56.872Z,9.10
2019-03-28T08:13:27.111Z,9.00
2019-03-28T08:15:57.550Z,9.00
2019-03-28T08:18:28.049Z,9.10
2019-03-28T08:20:58.612Z,9.20
2019-03-28T08:23:29.658Z,9.10
2019-03-28T08:25:59.934Z,9.20
2019-03-28T08:28:30.418Z,9.20
2019-03-28T08:31:00.911Z,9.30
2019-03-28T08:33:31.935Z,9.30
2019-03-28T08:36:03.958Z,9.30
2019-03-28T08:38:36.515Z,9.50
2019-03-28T08:41:07.289Z,9.50
2019-03-28T08:43:37.798Z,9.50
2019-03-28T08:46:08.856Z,9.50
2019-03-28T08:48:39.578Z,9.60
2019-03-28T08:51:09.986Z,9.60
2019-03-28T08:53:40.444Z,9.60
2019-03-28T08:56:10.615Z,9.80
2019-03-28T08:58:40.789Z,10.00
2019-03-28T09:01:11.094Z,10.00
2019-03-28T09:03:41.266Z,9.90
2019-03-28T09:06:11.458Z,10.00
2019-03-28T09:08:41.726Z,10.00
2019-03-28T09:11:12.031Z,10.10
2019-03-28T09:13:42.212Z,10.20
2019-03-28T09:16:12.388Z,10.30
2019-03-28T09:18:42.584Z,10.30
2019-03-28T09:21:12.750Z,10.40
2019-03-28T09:23:42.976Z,10.30
2019-03-28T09:26:13.159Z,10.40
2019-03-28T09:28:43.387Z,10.50
2019-03-28T09:31:19.849Z,10.50
2019-03-28T09:33:45.837Z,10.50
2019-03-28T09:36:16.077Z,10.50
2019-03-28T09:38:46.278Z,10.60
2019-03-28T09:41:16.446Z,10.70
2019-03-28T09:43:55.042Z,10.70
2019-03-28T09:46:18.491Z,10.70
2019-03-28T09:48:48.666Z,10.60
2019-03-28T09:51:18.844Z,10.60
2019-03-28T09:53:49.112Z,10.60
2019-03-28T09:56:19.275Z,10.70
2019-03-28T09:58:49.483Z,10.80
2019-03-28T10:01:19.744Z,10.70
2019-03-28T10:03:49.978Z,10.70
2019-03-28T10:06:20.154Z,10.70
2019-03-28T10:08:50.363Z,10.70
2019-03-28T10:11:20.534Z,10.80
2019-03-28T10:13:50.928Z,10.80
2019-03-28T10:16:21.127Z,10.80
2019-03-28T10:18:51.398Z,10.70
2019-03-28T10:21:21.573Z,10.80
2019-03-28T10:23:52.084Z,10.80
2019-03-28T10:26:22.502Z,10.70
2019-03-28T10:28:52.911Z,10.80
2019-03-28T10:31:23.202Z,10.90
2019-03-28T10:33:53.818Z,10.90
2019-03-28T10:36:24.015Z,10.90
2019-03-28T10:38:54.891Z,11.00
2019-03-28T10:41:25.977Z,11.00
2019-03-28T10:43:56.445Z,11.00
2019-03-28T10:46:26.742Z,11.10
2019-03-28T10:48:57.008Z,11.20
2019-03-28T10:51:27.286Z,11.20
2019-03-28T10:53:57.631Z,11.10
2019-03-28T10:56:28.118Z,11.10
2019-03-28T10:58:58.573Z,11.10
2019-03-28T11:01:46.922Z,11.20
2019-03-28T11:04:00.997Z,11.10
2019-03-28T11:06:31.204Z,11.20
2019-03-28T11:09:01.720Z,11.10
2019-03-28T11:11:33.239Z,11.10
2019-03-28T11:14:03.808Z,11.20
2019-03-28T11:16:34.067Z,11.20
2019-03-28T11:19:04.874Z,11.30
2019-03-28T11:21:35.475Z,11.20
2019-03-28T11:24:05.786Z,11.30
2019-03-28T11:26:36.265Z,11.30
2019-03-28T11:29:07.721Z,11.40
2019-03-28T11:34:10.028Z,11.50
2019-03-28T11:36:40.712Z,11.50
2019-03-28T11:39:11.443Z,11.60
2019-03-28T11:41:41.609Z,11.60
2019-03-28T11:42:35.412Z,11.40
2019-03-28T11:44:11.825Z,11.60
2019-03-28T11:46:42.067Z,11.60
2019-03-28T11:49:12.558Z,11.70
2019-03-28T11:51:43.058Z,11.60
2019-03-28T11:54:13.248Z,11.60
2019-03-28T11:56:43.624Z,11.70
2019-03-28T11:59:13.805Z,11.60
2019-03-28T12:01:43.996Z,11.70
2019-03-28T12:04:14.414Z,11.70
2019-03-28T12:06:48.783Z,11.70
2019-03-28T12:09:17.861Z,11.80
2019-03-28T12:11:48.079Z,11.90
2019-03-28T12:14:18.535Z,11.90
2019-03-28T12:16:48.709Z,11.90
2019-03-28T12:19:18.960Z,11.80
2019-03-28T12:21:49.410Z,11.80
2019-03-28T12:24:19.678Z,11.80
2019-03-28T12:26:49.869Z,11.70
2019-03-28T12:29:20.121Z,11.70
2019-03-28T12:31:50.579Z,11.70
2019-03-28T12:34:20.751Z,11.80
2019-03-28T12:36:51.172Z,11.80
2019-03-28T12:39:21.331Z,11.70
2019-03-28T12:41:51.577Z,11.70
2019-03-28T12:44:21.814Z,11.70
2019-03-28T12:46:52.319Z,11.70
2019-03-28T12:49:22.493Z,11.80
2019-03-28T12:51:52.713Z,11.70
2019-03-28T12:54:23.642Z,11.90
2019-03-28T12:56:53.913Z,11.90
2019-03-28T12:59:24.717Z,12.00
2019-03-28T13:01:55.238Z,12.10
2019-03-28T13:04:26.562Z,12.20
2019-03-28T13:06:57.883Z,12.10
2019-03-28T13:09:28.274Z,12.20
2019-03-28T13:12:00.441Z,12.20
2019-03-28T13:14:31.447Z,12.20
2019-03-28T13:17:02.086Z,12.20
2019-03-28T13:19:32.375Z,12.30
2019-03-28T13:22:02.746Z,12.30
2019-03-28T13:24:32.950Z,12.10
2019-03-28T13:27:03.564Z,12.10
2019-03-28T13:29:33.843Z,12.10
2019-03-28T13:32:04.102Z,12.20
2019-03-28T13:34:34.293Z,12.30
2019-03-28T13:37:04.701Z,12.30
2019-03-28T13:39:34.867Z,12.40
2019-03-28T13:42:05.099Z,12.30
2019-03-28T13:44:35.303Z,12.40
2019-03-28T13:47:05.467Z,12.30
2019-03-28T13:49:36.047Z,12.30
2019-03-28T13:52:06.219Z,12.40
2019-03-28T13:54:36.828Z,12.40
2019-03-28T13:57:07.100Z,12.50
2019-03-28T13:59:37.484Z,12.50
2019-03-28T14:02:07.646Z,12.50
2019-03-28T14:04:38.762Z,12.40
2019-03-28T14:07:09.192Z,12.40
2019-03-28T14:09:39.356Z,12.40
2019-03-28T14:12:09.578Z,12.30
2019-03-28T14:14:40.040Z,12.30
2019-03-28T14:17:10.663Z,12.20
2019-03-28T14:19:40.910Z,12.10
2019-03-28T14:22:11.600Z,12.00
2019-03-28T14:24:42.258Z,12.00
2019-03-28T14:27:12.547Z,12.00
2019-03-28T14:29:42.997Z,12.00
2019-03-28T14:32:13.214Z,12.00
2019-03-28T14:34:43.468Z,12.10
2019-03-28T14:37:16.876Z,12.10
2019-03-28T14:39:47.817Z,12.20
2019-03-28T14:42:19.767Z,12.20
2019-03-28T14:44:49.484Z,12.10
2019-03-28T14:47:19.674Z,12.10
2019-03-28T14:49:49.846Z,12.10
2019-03-28T14:52:20.571Z,12.00
2019-03-28T14:54:51.102Z,12.10
2019-03-28T14:57:22.135Z,12.10
2019-03-28T14:59:53.489Z,12.10
2019-03-28T15:02:23.699Z,12.10
2019-03-28T15:04:53.954Z,12.20
2019-03-28T15:07:24.172Z,12.10
2019-03-28T15:09:54.466Z,12.00
2019-03-28T15:12:24.654Z,12.00
2019-03-28T15:14:55.921Z,12.10
2019-03-28T15:17:26.390Z,12.10
2019-03-28T15:19:56.740Z,12.10
2019-03-28T15:22:26.961Z,12.10
2019-03-28T15:24:57.726Z,12.10
2019-03-28T15:27:28.366Z,12.10
2019-03-28T15:29:58.540Z,12.20
2019-03-28T15:32:29.057Z,12.20
2019-03-28T15:34:59.219Z,12.30
2019-03-28T15:37:30.606Z,12.30
2019-03-28T15:40:00.775Z,12.30
2019-03-28T15:42:31.005Z,12.20
2019-03-28T15:45:01.177Z,12.30
2019-03-28T15:47:31.819Z,12.20
2019-03-28T15:50:02.010Z,12.10
2019-03-28T15:52:33.423Z,12.10
2019-03-28T15:55:05.669Z,12.10
2019-03-28T15:57:35.828Z,12.10
2019-03-28T16:00:08.794Z,12.10
2019-03-28T16:02:38.973Z,12.10
2019-03-28T16:05:09.250Z,12.10
2019-03-28T16:07:39.643Z,12.10
2019-03-28T16:10:14.543Z,12.10
2019-03-28T16:12:43.284Z,12.10
2019-03-28T16:15:14.811Z,12.10
2019-03-28T16:17:45.122Z,12.20
2019-03-28T16:20:15.474Z,12.20
2019-03-28T16:22:45.935Z,12.20
2019-03-28T16:25:16.438Z,12.10
2019-03-28T16:27:47.486Z,12.20
2019-03-28T16:30:20.067Z,12.10
2019-03-28T16:32:51.056Z,12.10
2019-03-28T16:35:21.832Z,12.10
2019-03-28T16:37:52.008Z,12.00
2019-03-28T16:40:22.444Z,12.00
2019-03-28T16:42:52.607Z,12.00
2019-03-28T16:45:22.979Z,12.10
2019-03-28T16:47:53.979Z,12.00
2019-03-28T16:50:25.303Z,12.00
2019-03-28T16:52:55.718Z,11.90
2019-03-28T16:55:26.883Z,12.00
2019-03-28T16:57:57.834Z,12.00
2019-03-28T17:00:47.310Z,12.00
2019-03-28T17:03:17.826Z,12.00
2019-03-28T17:05:47.986Z,11.90
2019-03-28T17:08:18.997Z,11.80
2019-03-28T17:10:51.718Z,11.80
2019-03-28T17:13:22.002Z,11.80
2019-03-28T17:15:52.346Z,11.80
2019-03-28T17:18:22.654Z,11.80
2019-03-28T17:20:53.155Z,11.80
2019-03-28T17:23:24.002Z,11.80
2019-03-28T17:25:54.463Z,11.80
2019-03-28T17:28:24.806Z,11.80
2019-03-28T17:30:55.540Z,11.90
2019-03-28T17:33:25.702Z,11.80
2019-03-28T17:35:55.905Z,11.70
2019-03-28T17:38:26.080Z,11.70
2019-03-28T17:40:56.309Z,11.70
2019-03-28T17:43:26.463Z,11.70
2019-03-28T17:45:56.640Z,11.70
2019-03-28T17:48:28.518Z,11.60
2019-03-28T17:50:58.686Z,11.50
2019-03-28T17:53:28.946Z,11.50
2019-03-28T17:55:59.130Z,11.50
2019-03-28T17:58:31.667Z,11.60
2019-03-28T18:01:02.037Z,11.50
2019-03-28T18:03:32.207Z,11.70
2019-03-28T18:06:02.403Z,11.70
2019-03-28T18:08:32.608Z,11.60
2019-03-28T18:11:02.815Z,11.60
2019-03-28T18:13:33.132Z,11.60
2019-03-28T18:16:03.451Z,11.50
2019-03-28T18:18:33.663Z,11.50
2019-03-28T18:21:03.831Z,11.50
2019-03-28T18:23:34.074Z,11.50
2019-03-28T18:26:04.621Z,11.50
2019-03-28T18:28:35.719Z,11.40
2019-03-28T18:31:06.059Z,11.50
2019-03-28T18:33:36.691Z,11.40
2019-03-28T18:36:07.214Z,11.40
2019-03-28T18:38:37.717Z,11.30
2019-03-28T18:41:07.878Z,11.40
2019-03-28T18:43:38.059Z,11.30
2019-03-28T18:46:08.226Z,11.40
2019-03-28T18:48:38.698Z,11.30
2019-03-28T18:51:09.839Z,11.30
2019-03-28T18:53:40.024Z,11.40
2019-03-28T18:56:10.268Z,11.40
2019-03-28T18:58:40.521Z,11.30
2019-03-28T19:01:10.682Z,11.30
2019-03-28T19:03:40.848Z,11.20
2019-03-28T19:06:11.011Z,11.20
2019-03-28T19:08:41.598Z,11.20
2019-03-28T19:11:11.845Z,11.10
2019-03-28T19:13:42.277Z,11.20
2019-03-28T19:16:12.695Z,11.10
2019-03-28T19:18:42.859Z,11.10
2019-03-28T19:21:13.146Z,11.20
2019-03-28T19:23:43.329Z,11.20
2019-03-28T19:26:13.504Z,11.20
2019-03-28T19:28:43.690Z,11.20
2019-03-28T19:31:14.103Z,11.20
2019-03-28T19:33:44.723Z,11.20
2019-03-28T19:36:15.257Z,11.10
2019-03-28T19:38:45.905Z,11.10
2019-03-28T19:41:16.067Z,11.10
2019-03-28T19:43:46.404Z,11.10
2019-03-28T19:46:16.902Z,11.10
2019-03-28T19:48:47.074Z,11.40
2019-03-28T19:51:17.568Z,11.30
2019-03-28T19:53:47.786Z,11.20
2019-03-28T19:56:18.024Z,11.10
2019-03-28T19:58:48.874Z,11.10
2019-03-28T20:01:19.170Z,11.00
2019-03-28T20:03:52.334Z,11.00
2019-03-28T20:06:22.679Z,11.00
2019-03-28T20:08:53.631Z,11.00
2019-03-28T20:11:23.902Z,11.00
2019-03-28T20:13:54.170Z,11.00
2019-03-28T20:16:24.420Z,10.90
2019-03-28T20:18:54.906Z,10.90
2019-03-28T20:21:25.090Z,10.80
2019-03-28T20:23:56.750Z,10.80
2019-03-28T20:26:27.269Z,10.80
2019-03-28T20:28:57.765Z,10.80
2019-03-28T20:31:27.957Z,10.80
2019-03-28T20:33:58.131Z,10.80
2019-03-28T20:36:37.690Z,10.80
2019-03-28T20:39:04.201Z,10.80
2019-03-28T20:41:33.054Z,10.70
2019-03-28T20:44:03.312Z,10.70
2019-03-28T20:46:33.852Z,10.80
2019-03-28T20:49:04.017Z,10.80
2019-03-28T20:51:34.198Z,10.70
2019-03-28T20:54:07.675Z,10.80
2019-03-28T20:56:36.582Z,10.80
2019-03-28T20:59:06.750Z,10.80
2019-03-28T21:01:37.002Z,10.80
2019-03-28T21:04:07.867Z,10.70
2019-03-28T21:06:38.424Z,10.70
2019-03-28T21:09:08.964Z,10.60
2019-03-28T21:11:39.164Z,10.60
2019-03-28T21:14:09.479Z,10.70
2019-03-28T21:16:39.704Z,10.70
2019-03-28T21:19:09.926Z,10.70
2019-03-28T21:21:40.161Z,10.70
2019-03-28T21:24:10.509Z,10.70
2019-03-28T21:26:42.507Z,10.70
2019-03-28T21:29:12.983Z,10.60
2019-03-28T21:31:49.835Z,10.70
2019-03-28T21:34:15.174Z,10.70
2019-03-28T21:36:45.708Z,10.70
2019-03-28T21:39:16.228Z,10.70
2019-03-28T21:41:46.740Z,10.70
2019-03-28T21:44:17.146Z,10.70
2019-03-28T21:46:47.378Z,10.60
2019-03-28T21:49:17.556Z,10.60
2019-03-28T21:51:47.783Z,10.60
2019-03-28T21:54:17.975Z,10.60
2019-03-28T21:56:48.295Z,10.60
2019-03-28T21:59:18.543Z,10.60
2019-03-28T22:01:48.710Z,10.60
2019-03-28T22:04:18.898Z,10.60
2019-03-28T22:06:49.277Z,10.60
2019-03-28T22:09:19.571Z,10.60
2019-03-28T22:11:49.739Z,10.60
2019-03-28T22:14:20.051Z,10.60
2019-03-28T22:16:50.216Z,10.60
2019-03-28T22:19:20.390Z,10.60
2019-03-28T22:21:50.556Z,10.60
2019-03-28T22:24:20.730Z,10.70
2019-03-28T22:26:50.894Z,10.60
2019-03-28T22:29:21.396Z,10.60
2019-03-28T22:31:51.555Z,10.60
2019-03-28T22:34:22.043Z,10.50
2019-03-28T22:36:57.676Z,10.50
2019-03-28T22:39:24.325Z,10.50
2019-03-28T22:41:54.478Z,10.50
2019-03-28T22:44:24.972Z,10.50
2019-03-28T22:46:55.466Z,10.50
2019-03-28T22:49:25.633Z,10.50
2019-03-28T22:51:55.884Z,10.50
2019-03-28T22:54:26.075Z,10.50
2019-03-28T22:56:57.215Z,10.50
2019-03-28T22:59:27.409Z,10.60
2019-03-28T23:01:58.137Z,10.60
2019-03-28T23:04:28.310Z,10.60
2019-03-28T23:07:10.424Z,10.60
2019-03-28T23:09:31.681Z,10.60
2019-03-28T23:12:01.844Z,10.60
2019-03-28T23:14:32.288Z,10.60
2019-03-28T23:17:02.542Z,10.50
2019-03-28T23:19:33.260Z,10.50
2019-03-28T23:22:03.752Z,10.50
2019-03-28T23:24:33.952Z,10.50
2019-03-28T23:27:04.500Z,10.60
2019-03-28T23:29:34.678Z,10.60
2019-03-28T23:32:05.019Z,10.60
2019-03-28T23:34:35.225Z,10.60
2019-03-28T23:37:05.525Z,10.60
2019-03-28T23:39:35.991Z,10.60
2019-03-28T23:42:06.162Z,10.60
2019-03-28T23:44:36.487Z,10.60
2019-03-28T23:47:06.663Z,10.60
2019-03-28T23:49:38.605Z,10.50
2019-03-28T23:52:08.767Z,10.60
2019-03-28T23:54:38.934Z,10.50
2019-03-28T23:57:11.043Z,10.50
2019-03-28T23:59:42.083Z,10.50
